Time;durP1;ratioP1;P1;durP2;ratioP2;P2;SDS_P1;SDS_P2;PMS_P1;PMS_P2;Temp;Humidity;BMP_temperature;BMP_pressure;BME280_temperature;BME280_humidity;BME280_pressure;Samples;Min_cycle;Max_cycle;Signal;HPM_P1;HPM_P2
2022/02/06 00:00:51;;;;;;;0.10;0.10;;;6.80;99.90;;;;;;5072334;28;20041;-81
2022/02/06 00:03:19;;;;;;;0.10;0.10;;;6.80;99.90;;;;;;5055772;28;20494;-81
2022/02/06 00:05:50;;;;;;;0.00;0.00;;;6.80;99.90;;;;;;5057271;28;20429;-81
2022/02/06 00:08:17;;;;;;;0.10;0.10;;;6.70;99.90;;;;;;5036786;28;20107;-84
2022/02/06 00:10:44;;;;;;;0.00;0.00;;;6.80;99.90;;;;;;5052034;28;20041;-85
2022/02/06 00:13:11;;;;;;;0.00;0.00;;;6.80;99.90;;;;;;5035626;28;20051;-81
2022/02/06 00:15:38;;;;;;;0.00;0.00;;;6.80;99.90;;;;;;5035773;28;20135;-85
2022/02/06 00:18:04;;;;;;;0.10;0.10;;;6.90;99.90;;;;;;5052135;28;20796;-85
2022/02/06 00:20:41;;;;;;;0.10;0.10;;;7.10;99.90;;;;;;5061623;28;20045;-81
2022/02/06 00:23:11;;;;;;;0.10;0.10;;;6.90;99.90;;;;;;5067707;28;20037;-81
2022/02/06 00:25:53;;;;;;;0.00;0.00;;;7.00;99.90;;;;;;5061740;28;20092;-81
2022/02/06 00:28:34;;;;;;;0.00;0.00;;;6.90;99.90;;;;;;5038868;28;20157;-81
2022/02/06 00:34:03;;;;;;;0.10;0.10;;;7.00;99.90;;;;;;5088263;28;20045;-85
2022/02/06 00:39:15;;;;;;;0.17;0.17;;;7.00;99.90;;;;;;5074473;28;20061;-85
2022/02/06 00:41:42;;;;;;;0.00;0.00;;;7.10;99.90;;;;;;5054937;28;20071;-85
2022/02/06 00:44:10;;;;;;;0.10;0.10;;;7.10;99.90;;;;;;5071815;28;20048;-85
2022/02/06 00:46:39;;;;;;;0.10;0.10;;;7.10;99.90;;;;;;5071409;28;20122;-81
2022/02/06 00:49:17;;;;;;;0.00;0.00;;;7.10;99.90;;;;;;5071504;28;20076;-81
2022/02/06 00:51:56;;;;;;;0.00;0.00;;;7.10;99.90;;;;;;5071650;28;20080;-84
2022/02/06 00:54:23;;;;;;;0.10;0.10;;;7.10;99.90;;;;;;5073005;28;20044;-81
2022/02/06 00:56:50;;;;;;;0.00;0.00;;;7.10;99.90;;;;;;5070783;28;20140;-84
2022/02/06 00:59:17;;;;;;;0.00;0.00;;;7.10;99.90;;;;;;5071501;28;20041;-81
2022/02/06 01:01:44;;;;;;;0.00;0.00;;;7.10;99.90;;;;;;5071027;28;20041;-81
2022/02/06 01:04:12;;;;;;;0.10;0.10;;;7.10;99.90;;;;;;5088097;28;20041;-81
2022/02/06 01:06:40;;;;;;;0.00;0.00;;;7.10;99.90;;;;;;5071131;28;20033;-80
2022/02/06 01:09:08;;;;;;;0.00;0.00;;;7.40;99.90;;;;;;5071069;28;20041;-84
2022/02/06 01:11:37;;;;;;;0.00;0.00;;;7.20;99.90;;;;;;5071053;28;20135;-84
2022/02/06 01:14:15;;;;;;;0.10;0.10;;;7.20;99.90;;;;;;5071232;28;20045;-80
2022/02/06 01:16:56;;;;;;;0.10;0.10;;;7.20;99.90;;;;;;5072319;28;20088;-84
2022/02/06 01:19:27;;;;;;;0.00;0.00;;;7.10;99.90;;;;;;5056632;28;20066;-81
2022/02/06 01:22:03;;;;;;;0.03;0.03;;;7.20;99.90;;;;;;5055162;28;20040;-85
2022/02/06 01:27:37;;;;;;;0.10;0.10;;;7.20;99.90;;;;;;5058369;28;20398;-84
2022/02/06 01:31:15;;;;;;;0.10;0.10;;;7.20;99.90;;;;;;5055924;28;20508;-84
2022/02/06 01:33:11;;;;;;;0.10;0.10;;;7.20;99.90;;;;;;5061654;28;20088;-81
2022/02/06 01:41:10;;;;;;;0.10;0.10;;;7.20;99.90;;;;;;5086992;28;20041;-84
2022/02/06 01:43:49;;;;;;;0.10;0.10;;;7.90;99.90;;;;;;5073652;28;20055;-84
2022/02/06 02:03:38;;;;;;;0.10;0.10;;;7.30;99.90;;;;;;5072857;28;20076;-81
2022/02/06 02:05:48;;;;;;;0.10;0.10;;;7.30;99.90;;;;;;5061357;28;20051;-85
2022/02/06 02:24:27;;;;;;;;;;;7.30;99.90;;;;;;5071426;28;20490;-81
2022/02/06 02:27:21;;;;;;;0.10;0.10;;;7.30;99.90;;;;;;5055658;28;19917;-84
2022/02/06 02:48:29;;;;;;;0.05;0.05;;;7.40;99.90;;;;;;5070367;28;20143;-81
2022/02/06 02:51:01;;;;;;;0.10;0.10;;;7.40;99.90;;;;;;5069469;28;20094;-81
2022/02/06 02:53:37;;;;;;;0.10;0.10;;;7.40;99.90;;;;;;5070450;28;20041;-81
2022/02/06 03:01:16;;;;;;;0.10;0.10;;;7.40;99.90;;;;;;5069473;28;20065;-85
2022/02/06 03:03:43;;;;;;;0.05;0.05;;;7.40;99.90;;;;;;5071095;28;20068;-84
2022/02/06 03:06:10;;;;;;;0.10;0.10;;;7.40;99.90;;;;;;5069461;28;20092;-84
2022/02/06 03:08:38;;;;;;;0.10;0.10;;;7.40;99.90;;;;;;5052900;28;20033;-81
2022/02/06 03:11:08;;;;;;;0.00;0.00;;;7.40;99.90;;;;;;5069017;28;20052;-85
2022/02/06 03:13:43;;;;;;;0.10;0.10;;;7.40;99.90;;;;;;5069661;28;20041;-81
2022/02/06 03:18:48;;;;;;;0.00;0.00;;;7.40;99.90;;;;;;5086172;28;20083;-81
2022/02/06 03:21:24;;;;;;;0.10;0.10;;;7.40;99.90;;;;;;5053814;28;20041;-81
2022/02/06 03:23:54;;;;;;;0.10;0.10;;;7.40;99.90;;;;;;5053514;28;20493;-81
2022/02/06 03:26:22;;;;;;;0.05;0.05;;;7.40;99.90;;;;;;5052991;28;20120;-81
2022/02/06 03:28:51;;;;;;;0.00;0.00;;;7.50;99.90;;;;;;5068504;28;20037;-84
2022/02/06 03:31:17;;;;;;;0.00;0.00;;;7.40;99.90;;;;;;5069745;28;20044;-81
2022/02/06 03:33:47;;;;;;;0.10;0.10;;;7.40;99.90;;;;;;5069510;28;20513;-85
2022/02/06 03:36:14;;;;;;;0.10;0.10;;;7.40;99.90;;;;;;5052985;28;20410;-81
2022/02/06 03:38:40;;;;;;;0.10;0.10;;;7.40;99.90;;;;;;5052663;28;20041;-85
2022/02/06 03:41:10;;;;;;;0.10;0.10;;;7.30;99.90;;;;;;5068691;28;20055;-81
2022/02/06 03:46:18;;;;;;;0.10;0.10;;;7.40;99.90;;;;;;5070463;28;20084;-81
2022/02/06 03:51:19;;;;;;;0.10;0.10;;;7.40;99.90;;;;;;5072538;28;20044;-81
2022/02/06 03:53:53;;;;;;;0.05;0.05;;;7.50;99.90;;;;;;5072768;28;20047;-85
2022/02/06 03:56:22;;;;;;;0.00;0.00;;;7.40;99.90;;;;;;5072266;28;20470;-81
2022/02/06 03:58:49;;;;;;;0.10;0.10;;;7.40;99.90;;;;;;5072457;28;20159;-80
2022/02/06 04:01:15;;;;;;;0.05;0.05;;;7.40;99.90;;;;;;5072353;28;20513;-81
2022/02/06 04:03:42;;;;;;;0.10;0.10;;;7.40;99.90;;;;;;5072549;28;20079;-85
2022/02/06 04:06:09;;;;;;;0.05;0.05;;;7.50;99.90;;;;;;5055341;28;20450;-85
2022/02/06 04:08:38;;;;;;;0.10;0.10;;;7.40;99.90;;;;;;5072906;28;20044;-81
2022/02/06 04:11:10;;;;;;;0.00;0.00;;;7.50;99.90;;;;;;5072387;28;20052;-84
2022/02/06 04:13:51;;;;;;;0.10;0.10;;;7.50;99.90;;;;;;5072315;28;20136;-85
2022/02/06 04:16:25;;;;;;;0.00;0.00;;;7.50;99.90;;;;;;5074420;28;20136;-81
2022/02/06 04:19:04;;;;;;;0.20;0.20;;;7.50;99.90;;;;;;5056527;28;20406;-81
2022/02/06 04:21:31;;;;;;;0.10;0.10;;;7.50;99.90;;;;;;5072164;28;20049;-81
2022/02/06 04:23:58;;;;;;;0.08;0.08;;;7.50;99.90;;;;;;5071646;28;20041;-81
2022/02/06 04:26:26;;;;;;;0.10;0.10;;;7.50;99.90;;;;;;5072195;28;20094;-81
2022/02/06 04:28:53;;;;;;;0.10;0.10;;;7.50;99.90;;;;;;5072026;28;20041;-85
2022/02/06 04:31:20;;;;;;;0.08;0.08;;;7.50;99.90;;;;;;5071858;28;20433;-85
2022/02/06 04:33:50;;;;;;;0.10;0.10;;;7.50;99.90;;;;;;5055563;28;20619;-81
2022/02/06 04:36:18;;;;;;;0.00;0.00;;;7.50;99.90;;;;;;5072111;28;20044;-81
2022/02/06 04:44:59;;;;;;;0.13;0.10;;;7.50;99.90;;;;;;5073603;28;20048;-84
2022/02/06 05:17:28;;;;;;;0.10;0.10;;;7.50;99.90;;;;;;5073438;28;20128;-85
2022/02/06 05:30:04;;;;;;;0.10;0.10;;;7.50;99.90;;;;;;5071281;28;20052;-81
2022/02/06 05:32:37;;;;;;;0.00;0.00;;;7.50;99.90;;;;;;5070648;28;20429;-81
2022/02/06 05:35:08;;;;;;;0.10;0.10;;;7.50;99.90;;;;;;5070847;28;20482;-80
2022/02/06 05:37:35;;;;;;;0.10;0.10;;;7.50;99.90;;;;;;5070806;28;20040;-81
2022/02/06 05:40:02;;;;;;;0.10;0.10;;;7.50;99.90;;;;;;5070494;28;20051;-84
2022/02/06 05:42:28;;;;;;;0.00;0.00;;;7.50;99.90;;;;;;5070247;28;20041;-81
2022/02/06 05:44:56;;;;;;;0.00;0.00;;;7.50;99.90;;;;;;5054399;28;20037;-81
2022/02/06 05:47:24;;;;;;;0.00;0.00;;;7.50;99.90;;;;;;5070407;28;20478;-84
2022/02/06 05:49:51;;;;;;;0.00;0.00;;;7.50;99.90;;;;;;5054058;28;20041;-81
2022/02/06 05:52:18;;;;;;;0.10;0.10;;;7.60;99.90;;;;;;5070179;28;20087;-81
2022/02/06 05:54:45;;;;;;;0.10;0.10;;;7.50;99.90;;;;;;5070241;28;20730;-85
2022/02/06 05:57:13;;;;;;;0.00;0.00;;;7.60;99.90;;;;;;5069625;28;20106;-81
2022/02/06 05:59:40;;;;;;;0.00;0.00;;;7.60;99.90;;;;;;5069866;28;20152;-81
2022/02/06 06:02:07;;;;;;;0.10;0.10;;;7.60;99.90;;;;;;5053660;28;20045;-84
2022/02/06 06:04:34;;;;;;;0.10;0.10;;;7.60;99.90;;;;;;5069868;28;20068;-81
2022/02/06 06:07:04;;;;;;;0.10;0.10;;;8.20;99.90;;;;;;5086786;28;20037;-81
2022/02/06 06:09:31;;;;;;;0.10;0.10;;;7.60;99.90;;;;;;5085765;28;20047;-81
2022/02/06 06:11:58;;;;;;;0.10;0.10;;;7.60;99.90;;;;;;5066542;28;20037;-84
2022/02/06 06:14:28;;;;;;;0.00;0.00;;;7.60;99.90;;;;;;5036324;28;20049;-81
2022/02/06 06:16:56;;;;;;;0.00;0.00;;;7.70;99.90;;;;;;4999210;28;20042;-85
2022/02/06 06:19:23;;;;;;;0.00;0.00;;;7.60;99.90;;;;;;5030051;28;20637;-84
2022/02/06 06:21:55;;;;;;;0.10;0.10;;;7.60;99.90;;;;;;5013938;28;20121;-81
2022/02/06 06:24:24;;;;;;;0.00;0.00;;;7.60;99.90;;;;;;4999217;28;20402;-84
2022/02/06 06:26:52;;;;;;;0.00;0.00;;;7.70;99.90;;;;;;5031837;28;20399;-84
2022/02/06 06:29:19;;;;;;;0.05;0.05;;;7.70;99.90;;;;;;5013811;28;20038;-81
2022/02/06 06:31:46;;;;;;;0.10;0.10;;;7.70;99.90;;;;;;5013871;28;20557;-84
2022/02/06 06:34:13;;;;;;;0.10;0.10;;;7.60;99.90;;;;;;5046813;28;20050;-81
2022/02/06 06:36:39;;;;;;;0.00;0.00;;;7.80;99.90;;;;;;5013834;28;20388;-84
2022/02/06 06:39:06;;;;;;;0.10;0.10;;;7.70;99.90;;;;;;5046347;28;20042;-85
2022/02/06 06:41:33;;;;;;;0.10;0.10;;;7.70;99.90;;;;;;5030127;28;20050;-81
2022/02/06 06:44:00;;;;;;;0.10;0.10;;;7.70;99.90;;;;;;4997970;28;20038;-81
2022/02/06 06:46:27;;;;;;;0.08;0.08;;;7.70;99.90;;;;;;5013778;28;20053;-82
2022/02/06 06:48:53;;;;;;;0.10;0.10;;;7.70;99.90;;;;;;5014372;28;20052;-85
2022/02/06 06:51:20;;;;;;;0.03;0.03;;;7.70;99.90;;;;;;5013784;28;20046;-81
2022/02/06 06:53:49;;;;;;;0.00;0.00;;;7.70;99.90;;;;;;4997859;28;20519;-84
2022/02/06 06:56:26;;;;;;;0.10;0.10;;;7.70;99.90;;;;;;5013676;28;20053;-84
2022/02/06 06:58:53;;;;;;;0.10;0.10;;;7.70;99.90;;;;;;5015061;28;20132;-84
2022/02/06 07:01:43;;;;;;;0.00;0.00;;;7.70;99.90;;;;;;5013464;28;20142;-83
2022/02/06 07:04:07;;;;;;;0.10;0.10;;;7.90;99.90;;;;;;5019019;28;20406;-81
2022/02/06 07:06:34;;;;;;;0.10;0.10;;;7.70;99.90;;;;;;5013182;28;20049;-81
2022/02/06 07:09:00;;;;;;;0.03;0.03;;;7.70;99.90;;;;;;5014078;28;20065;-81
2022/02/06 07:11:27;;;;;;;0.00;0.00;;;7.70;99.90;;;;;;5058438;28;20050;-83
2022/02/06 07:13:54;;;;;;;0.00;0.00;;;7.70;99.90;;;;;;5032513;28;20053;-84
2022/02/06 07:16:20;;;;;;;0.10;0.10;;;7.80;99.90;;;;;;5048910;28;20087;-81
2022/02/06 07:18:47;;;;;;;0.08;0.08;;;7.90;99.90;;;;;;5016508;28;20648;-84
2022/02/06 07:21:14;;;;;;;0.10;0.10;;;7.80;99.90;;;;;;5035235;28;20486;-84
2022/02/06 07:23:41;;;;;;;0.22;0.22;;;7.80;99.90;;;;;;5020721;28;20502;-81
2022/02/06 07:26:14;;;;;;;0.10;0.10;;;7.90;99.90;;;;;;5033693;28;20413;-84
2022/02/06 07:28:47;;;;;;;0.10;0.10;;;7.80;99.90;;;;;;5044880;28;20600;-81
2022/02/06 07:31:14;;;;;;;0.10;0.10;;;7.80;99.90;;;;;;5053289;28;20071;-85
2022/02/06 07:33:41;;;;;;;0.10;0.10;;;7.80;99.90;;;;;;5052688;28;20132;-81
2022/02/06 07:36:08;;;;;;;0.10;0.10;;;7.80;99.90;;;;;;5058457;28;20115;-83
2022/02/06 07:38:34;;;;;;;0.10;0.10;;;7.80;99.90;;;;;;5052651;28;20464;-81
2022/02/06 07:41:01;;;;;;;0.05;0.05;;;7.70;99.90;;;;;;5055221;28;20098;-84
2022/02/06 07:43:28;;;;;;;0.30;0.30;;;7.50;99.90;;;;;;5071885;28;20048;-84
2022/02/06 07:45:55;;;;;;;0.00;0.00;;;7.80;99.90;;;;;;5072564;28;20028;-84
2022/02/06 07:48:21;;;;;;;0.00;0.00;;;7.80;99.90;;;;;;5072689;28;20048;-84
2022/02/06 07:50:48;;;;;;;0.03;0.03;;;7.80;99.90;;;;;;5069751;28;20041;-84
2022/02/06 07:53:15;;;;;;;0.10;0.10;;;7.80;99.90;;;;;;5047751;28;20029;-85
2022/02/06 07:55:41;;;;;;;0.10;0.10;;;7.80;99.90;;;;;;5071895;28;20033;-80
2022/02/06 07:58:08;;;;;;;0.10;0.10;;;7.70;99.90;;;;;;5072355;28;20187;-83
2022/02/06 08:00:35;;;;;;;0.10;0.10;;;7.80;99.90;;;;;;5072197;28;20094;-85
2022/02/06 08:03:01;;;;;;;0.10;0.10;;;7.70;99.90;;;;;;5055959;28;20044;-81
2022/02/06 08:05:29;;;;;;;0.00;0.00;;;7.70;99.90;;;;;;5072254;28;20078;-84
2022/02/06 08:07:58;;;;;;;0.10;0.10;;;7.80;99.90;;;;;;5072883;28;20037;-85
2022/02/06 08:10:25;;;;;;;1.17;0.80;;;7.70;99.90;;;;;;5052591;28;20486;-81
2022/02/06 08:12:55;;;;;;;0.08;0.08;;;7.80;99.90;;;;;;5057645;28;20056;-84
2022/02/06 08:15:23;;;;;;;0.00;0.00;;;7.80;99.90;;;;;;5068730;28;20060;-82
2022/02/06 08:17:51;;;;;;;0.10;0.10;;;7.70;99.90;;;;;;5049490;28;20135;-86
2022/02/06 08:20:19;;;;;;;0.10;0.10;;;7.80;99.90;;;;;;5035721;28;20057;-85
2022/02/06 08:22:46;;;;;;;0.10;0.10;;;7.80;99.90;;;;;;5051692;28;20045;-81
2022/02/06 08:25:14;;;;;;;0.10;0.10;;;7.80;99.90;;;;;;5051979;28;20044;-82
2022/02/06 08:27:42;;;;;;;0.00;0.00;;;7.80;99.90;;;;;;5051538;28;20041;-84
2022/02/06 08:30:12;;;;;;;0.00;0.00;;;8.20;99.90;;;;;;5035786;28;20044;-86
2022/02/06 08:32:38;;;;;;;0.10;0.10;;;7.80;99.90;;;;;;5052118;28;20671;-86
2022/02/06 08:35:09;;;;;;;0.10;0.10;;;7.80;99.90;;;;;;5036007;28;20137;-87
2022/02/06 08:37:36;;;;;;;0.10;0.10;;;7.80;99.90;;;;;;5055327;28;20049;-86
2022/02/06 08:40:12;;;;;;;0.00;0.00;;;7.80;99.90;;;;;;5051781;28;20037;-86
2022/02/06 08:42:40;;;;;;;0.10;0.10;;;7.80;99.90;;;;;;5050652;28;20510;-85
2022/02/06 08:45:09;;;;;;;0.00;0.00;;;7.80;99.90;;;;;;5050149;28;20053;-86
2022/02/06 08:47:43;;;;;;;0.08;0.08;;;7.80;99.90;;;;;;5051929;28;20029;-85
2022/02/06 08:50:10;;;;;;;0.10;0.10;;;7.80;99.90;;;;;;5051647;28;20044;-80
2022/02/06 08:52:37;;;;;;;0.10;0.10;;;7.80;99.90;;;;;;5053615;28;20099;-85
2022/02/06 08:55:08;;;;;;;0.10;0.10;;;7.80;99.90;;;;;;5040739;28;20045;-86
2022/02/06 08:57:36;;;;;;;0.00;0.00;;;7.80;99.90;;;;;;5050939;28;20095;-86
2022/02/06 09:00:04;;;;;;;0.05;0.05;;;7.80;99.90;;;;;;5051397;28;20438;-79
2022/02/06 09:02:31;;;;;;;0.10;0.10;;;7.80;99.90;;;;;;5050639;28;20107;-85
2022/02/06 09:04:58;;;;;;;0.10;0.10;;;7.80;99.90;;;;;;5051179;28;20042;-84
2022/02/06 09:07:24;;;;;;;0.05;0.05;;;7.80;99.90;;;;;;5034613;28;20128;-85
2022/02/06 09:09:57;;;;;;;0.10;0.10;;;7.80;99.90;;;;;;5048971;28;20045;-83
2022/02/06 09:12:23;;;;;;;0.10;0.10;;;7.70;99.90;;;;;;5034867;28;20044;-81
2022/02/06 09:14:50;;;;;;;0.00;0.00;;;7.70;99.90;;;;;;5049975;28;20045;-84
2022/02/06 09:17:18;;;;;;;0.00;0.00;;;7.80;99.90;;;;;;5051152;28;20282;-84
2022/02/06 09:19:44;;;;;;;0.00;0.00;;;7.70;99.90;;;;;;5050109;28;20033;-80
2022/02/06 09:22:13;;;;;;;0.08;0.08;;;7.70;99.90;;;;;;5066736;28;20414;-85
2022/02/06 09:24:40;;;;;;;0.20;0.20;;;7.70;99.90;;;;;;5049908;28;20830;-81
2022/02/06 09:27:08;;;;;;;0.00;0.00;;;7.70;99.90;;;;;;5034189;28;20098;-85
2022/02/06 09:29:37;;;;;;;0.03;0.03;;;7.70;99.90;;;;;;5051209;28;20041;-86
2022/02/06 09:37:07;;;;;;;0.03;0.03;;;7.70;99.90;;;;;;5050747;28;20675;-82
2022/02/06 09:39:38;;;;;;;0.00;0.00;;;7.70;99.90;;;;;;5050480;28;20080;-86
2022/02/06 09:42:06;;;;;;;0.10;0.10;;;7.70;99.90;;;;;;5050538;28;20041;-86
2022/02/06 09:44:34;;;;;;;0.00;0.00;;;7.70;99.90;;;;;;5049776;28;20092;-87
2022/02/06 09:47:02;;;;;;;0.10;0.10;;;7.70;99.90;;;;;;5050193;28;20536;-82
2022/02/06 09:49:30;;;;;;;0.10;0.10;;;7.70;99.90;;;;;;5033579;28;20049;-87
2022/02/06 09:51:58;;;;;;;0.00;0.00;;;7.70;99.90;;;;;;5066768;28;20049;-82
2022/02/06 09:54:25;;;;;;;0.05;0.05;;;7.70;99.90;;;;;;5033694;28;20115;-82
2022/02/06 09:56:55;;;;;;;0.10;0.10;;;7.90;99.90;;;;;;5032226;28;20136;-85
2022/02/06 09:59:23;;;;;;;0.00;0.00;;;7.70;99.90;;;;;;5057850;28;20049;-85
2022/02/06 10:01:52;;;;;;;0.10;0.10;;;7.60;99.90;;;;;;5041488;28;20043;-90
2022/02/06 10:04:26;;;;;;;0.10;0.10;;;7.70;99.90;;;;;;5056234;28;20171;-86
2022/02/06 10:06:57;;;;;;;0.00;0.00;;;7.70;99.90;;;;;;5049190;28;20456;-81
2022/02/06 10:09:42;;;;;;;0.00;0.00;;;7.70;99.90;;;;;;5049461;28;20049;-81
2022/02/06 10:12:10;;;;;;;0.00;0.00;;;7.70;99.90;;;;;;5065697;28;20038;-85
2022/02/06 10:14:37;;;;;;;0.00;0.00;;;7.70;99.90;;;;;;5049768;28;20047;-82
2022/02/06 10:17:04;;;;;;;0.10;0.10;;;7.70;99.90;;;;;;5032464;28;20045;-88
2022/02/06 10:19:31;;;;;;;0.10;0.10;;;7.70;99.90;;;;;;5033724;28;20084;-82
2022/02/06 10:21:59;;;;;;;0.10;0.10;;;7.70;99.90;;;;;;5049207;28;20037;-84
2022/02/06 10:24:32;;;;;;;0.10;0.10;;;7.70;99.90;;;;;;5049862;28;20037;-82
2022/02/06 10:27:12;;;;;;;0.03;0.03;;;7.60;99.90;;;;;;5066172;28;20042;-84
2022/02/06 10:29:42;;;;;;;0.00;0.00;;;7.70;99.90;;;;;;5049355;28;20043;-85
2022/02/06 10:32:16;;;;;;;0.10;0.10;;;7.70;99.90;;;;;;5033247;28;20037;-81
2022/02/06 10:34:44;;;;;;;0.10;0.10;;;7.80;99.90;;;;;;5049248;28;20042;-86
2022/02/06 10:37:23;;;;;;;0.05;0.05;;;7.70;99.90;;;;;;5049188;28;20159;-81
2022/02/06 10:39:57;;;;;;;0.00;0.00;;;7.70;99.90;;;;;;5048881;28;20045;-86
2022/02/06 10:42:29;;;;;;;0.00;0.00;;;7.80;99.90;;;;;;5049485;28;20037;-85
2022/02/06 10:45:17;;;;;;;0.10;0.10;;;7.80;99.90;;;;;;5065061;28;20103;-85
2022/02/06 10:47:49;;;;;;;0.00;0.00;;;7.80;99.90;;;;;;5048533;28;20041;-82
2022/02/06 10:50:28;;;;;;;0.00;0.00;;;7.80;99.90;;;;;;5048978;28;20402;-86
2022/02/06 10:53:10;;;;;;;0.00;0.00;;;7.80;99.90;;;;;;5049469;28;20123;-86
2022/02/06 10:56:01;;;;;;;0.05;0.05;;;7.80;99.90;;;;;;5050672;28;20068;-85
2022/02/06 10:58:33;;;;;;;0.08;0.08;;;7.80;99.90;;;;;;5055787;28;20049;-87
2022/02/06 11:01:29;;;;;;;0.05;0.05;;;7.60;99.90;;;;;;5056844;28;20049;-81
2022/02/06 11:04:16;;;;;;;0.00;0.00;;;7.30;99.90;;;;;;5059413;28;20048;-86
2022/02/06 11:07:05;;;;;;;0.00;0.00;;;7.10;99.90;;;;;;5050488;28;20063;-85
2022/02/06 11:09:32;;;;;;;0.10;0.10;;;6.80;99.90;;;;;;5071967;28;20120;-85
2022/02/06 11:12:00;;;;;;;0.00;0.00;;;6.60;99.90;;;;;;5055005;28;20609;-85
2022/02/06 11:14:29;;;;;;;0.00;0.00;;;6.50;99.90;;;;;;5055715;28;20551;-85
2022/02/06 11:16:57;;;;;;;0.00;0.00;;;6.40;99.90;;;;;;5055020;28;20038;-81
2022/02/06 11:19:24;;;;;;;0.10;0.10;;;6.30;99.90;;;;;;5072013;28;20064;-82
2022/02/06 11:22:08;;;;;;;0.10;0.10;;;6.20;99.90;;;;;;5054966;28;20049;-81
2022/02/06 11:24:39;;;;;;;0.10;0.10;;;6.20;99.90;;;;;;5055370;28;20052;-82
2022/02/06 11:27:07;;;;;;;0.03;0.03;;;6.10;99.90;;;;;;5055550;28;20033;-81
2022/02/06 11:29:35;;;;;;;0.10;0.10;;;6.00;99.90;;;;;;5055074;28;20038;-87
2022/02/06 11:32:02;;;;;;;0.10;0.10;;;5.90;99.90;;;;;;5038842;28;20050;-81
2022/02/06 11:34:29;;;;;;;0.10;0.10;;;5.90;99.90;;;;;;5039066;28;20090;-80
2022/02/06 11:46:07;;;;;;;0.10;0.10;;;5.80;99.90;;;;;;5071633;28;20045;-87
2022/02/06 11:48:37;;;;;;;0.10;0.10;;;5.80;99.90;;;;;;5063537;28;20109;-80
2022/02/06 11:51:04;;;;;;;0.03;0.03;;;5.70;99.90;;;;;;5060046;28;20037;-86
2022/02/06 11:53:38;;;;;;;0.10;0.10;;;5.70;99.90;;;;;;5054219;28;20030;-86
2022/02/06 11:56:35;;;;;;;0.00;0.00;;;5.80;99.90;;;;;;5063139;28;20059;-81
2022/02/06 11:59:20;;;;;;;0.10;0.10;;;5.80;99.90;;;;;;5074415;28;20064;-80
2022/02/06 12:01:47;;;;;;;0.10;0.10;;;5.80;99.90;;;;;;5071159;28;20037;-87
2022/02/06 12:04:24;;;;;;;0.10;0.10;;;5.80;99.90;;;;;;5060636;28;20041;-86
2022/02/06 12:06:53;;;;;;;0.10;0.10;;;5.80;99.90;;;;;;5054278;28;20124;-86
2022/02/06 12:09:31;;;;;;;0.00;0.00;;;5.80;99.90;;;;;;5053963;28;20041;-81
2022/02/06 12:12:04;;;;;;;0.10;0.10;;;5.90;99.90;;;;;;5051465;28;20529;-86
2022/02/06 12:14:37;;;;;;;0.10;0.10;;;5.90;99.90;;;;;;5052067;28;20092;-85
2022/02/06 12:17:43;;;;;;;0.00;0.00;;;5.90;99.90;;;;;;5052262;28;20041;-81
2022/02/06 12:20:17;;;;;;;0.10;0.10;;;6.00;99.90;;;;;;5066186;28;20046;-80
2022/02/06 12:22:46;;;;;;;0.10;0.10;;;6.00;99.90;;;;;;5051530;28;20041;-85
2022/02/06 12:25:21;;;;;;;0.10;0.10;;;6.00;99.90;;;;;;5051535;28;20041;-85
2022/02/06 12:27:50;;;;;;;0.10;0.10;;;6.00;99.90;;;;;;5052522;28;20037;-86
2022/02/06 12:30:28;;;;;;;0.10;0.10;;;6.20;99.90;;;;;;5050660;28;20068;-80
2022/02/06 12:38:39;;;;;;;0.10;0.10;;;5.90;99.90;;;;;;5061040;28;20045;-87
2022/02/06 12:41:24;;;;;;;0.10;0.10;;;5.90;99.90;;;;;;5067880;28;20048;-81
2022/02/06 12:43:54;;;;;;;0.10;0.10;;;6.30;99.90;;;;;;5036721;28;20095;-86
2022/02/06 12:46:23;;;;;;;0.10;0.10;;;6.10;99.90;;;;;;5048861;28;20033;-80
2022/02/06 12:48:50;;;;;;;0.10;0.10;;;6.00;99.90;;;;;;5071507;28;20052;-86
2022/02/06 12:51:28;;;;;;;0.10;0.10;;;5.90;99.90;;;;;;5053153;28;20394;-81
2022/02/06 12:54:14;;;;;;;0.10;0.10;;;6.00;99.90;;;;;;5067613;28;20068;-83
2022/02/06 12:56:43;;;;;;;0.10;0.10;;;6.00;99.90;;;;;;5035086;28;20093;-85
2022/02/06 12:59:15;;;;;;;0.10;0.10;;;6.00;99.90;;;;;;5051320;28;20049;-80
2022/02/06 13:01:45;;;;;;;0.10;0.10;;;6.00;99.90;;;;;;5050735;28;20041;-86
2022/02/06 13:04:27;;;;;;;0.10;0.10;;;6.20;99.90;;;;;;5067655;28;20057;-82
2022/02/06 13:07:00;;;;;;;0.10;0.10;;;6.10;99.90;;;;;;5051196;28;20044;-85
2022/02/06 13:09:32;;;;;;;0.10;0.10;;;6.10;99.90;;;;;;5050769;28;20080;-85
2022/02/06 13:12:11;;;;;;;0.10;0.10;;;6.10;99.90;;;;;;5056346;28;20044;-80
2022/02/06 13:17:35;;;;;;;0.10;0.10;;;6.20;99.90;;;;;;5087072;28;20049;-87
2022/02/06 13:30:56;;;;;;;0.10;0.10;;;6.30;99.90;;;;;;5067392;28;20044;-87
2022/02/06 13:38:42;;;;;;;0.10;0.10;;;6.30;99.90;;;;;;5077268;28;20044;-85
2022/02/06 13:41:18;;;;;;;0.10;0.10;;;6.40;99.90;;;;;;5070000;28;20044;-85
2022/02/06 13:43:50;;;;;;;0.10;0.10;;;6.40;99.90;;;;;;5083029;28;20048;-80
2022/02/06 13:46:22;;;;;;;0.10;0.10;;;6.40;99.90;;;;;;5041828;28;20099;-81
2022/02/06 13:48:50;;;;;;;0.10;0.10;;;6.40;99.90;;;;;;5050150;28;20069;-85
2022/02/06 13:51:23;;;;;;;0.00;0.00;;;6.40;99.90;;;;;;5048132;28;20056;-80
2022/02/06 13:53:58;;;;;;;0.10;0.10;;;6.50;99.90;;;;;;5070118;28;20045;-80
2022/02/06 13:56:25;;;;;;;0.00;0.00;;;6.50;99.90;;;;;;5086205;28;20114;-85
2022/02/06 13:59:04;;;;;;;0.10;0.10;;;6.60;99.90;;;;;;5069949;28;20045;-80
2022/02/06 14:01:43;;;;;;;0.10;0.10;;;6.60;99.90;;;;;;5052430;28;20088;-85
2022/02/06 14:04:32;;;;;;;0.10;0.10;;;6.60;99.90;;;;;;5050018;28;20090;-83
2022/02/06 14:07:14;;;;;;;0.10;0.10;;;6.70;99.90;;;;;;5049717;28;20029;-82
2022/02/06 14:12:08;;;;;;;0.10;0.10;;;6.70;99.90;;;;;;5050071;28;20601;-82
2022/02/06 14:14:52;;;;;;;0.10;0.10;;;6.80;99.90;;;;;;5060130;28;20131;-88
2022/02/06 14:17:38;;;;;;;0.10;0.10;;;6.80;99.90;;;;;;5047383;28;20045;-86
2022/02/06 14:20:10;;;;;;;0.10;0.10;;;6.80;99.90;;;;;;5066188;28;20049;-87
2022/02/06 14:22:43;;;;;;;0.10;0.10;;;6.90;99.90;;;;;;5033120;28;20045;-81
2022/02/06 14:25:12;;;;;;;0.10;0.10;;;6.60;99.90;;;;;;5057898;28;20029;-81
2022/02/06 14:27:42;;;;;;;0.10;0.10;;;6.90;99.90;;;;;;5070124;28;20037;-81
2022/02/06 14:30:12;;;;;;;0.00;0.00;;;6.90;99.90;;;;;;5085107;28;20102;-87
2022/02/06 14:33:11;;;;;;;0.10;0.10;;;6.90;99.90;;;;;;5069961;28;20083;-82
2022/02/06 14:35:40;;;;;;;0.10;0.10;;;6.90;99.90;;;;;;5066420;28;20080;-81
2022/02/06 14:38:12;;;;;;;0.10;0.10;;;6.90;99.90;;;;;;5085332;28;20132;-83
2022/02/06 14:43:11;;;;;;;0.10;0.10;;;7.40;99.90;;;;;;5085926;28;20135;-81
2022/02/06 14:45:49;;;;;;;0.10;0.10;;;7.00;99.90;;;;;;5053550;28;20041;-81
2022/02/06 14:48:17;;;;;;;0.10;0.10;;;7.00;99.90;;;;;;5069530;28;20044;-87
2022/02/06 14:50:52;;;;;;;0.00;0.00;;;7.00;99.90;;;;;;5069131;28;20520;-84
2022/02/06 14:53:21;;;;;;;0.10;0.10;;;7.00;99.90;;;;;;5069253;28;20045;-88
2022/02/06 14:55:51;;;;;;;0.10;0.10;;;6.90;99.90;;;;;;5069190;28;20056;-86
2022/02/06 14:58:19;;;;;;;0.00;0.00;;;7.00;99.90;;;;;;5052895;28;20049;-86
2022/02/06 15:00:46;;;;;;;0.10;0.10;;;7.00;99.90;;;;;;5069869;28;20506;-83
2022/02/06 15:03:14;;;;;;;0.10;0.10;;;7.00;99.90;;;;;;5068416;28;20048;-81
2022/02/06 15:05:41;;;;;;;0.10;0.10;;;6.90;99.90;;;;;;5069180;28;20444;-85
2022/02/06 15:08:09;;;;;;;0.10;0.10;;;6.90;99.90;;;;;;5069257;28;20167;-81
2022/02/06 15:10:37;;;;;;;0.10;0.10;;;6.90;99.90;;;;;;5086106;28;20037;-81
2022/02/06 15:13:06;;;;;;;0.10;0.10;;;6.90;99.90;;;;;;5068935;28;20041;-85
2022/02/06 15:15:38;;;;;;;0.10;0.10;;;6.90;99.90;;;;;;5068777;28;20037;-86
2022/02/06 15:18:46;;;;;;;0.00;0.00;;;6.80;99.90;;;;;;5069822;28;20041;-80
2022/02/06 15:20:58;;;;;;;0.10;0.10;;;6.90;99.90;;;;;;5052283;28;20135;-80
2022/02/06 15:23:25;;;;;;;0.17;0.17;;;6.70;99.90;;;;;;5068259;28;20044;-81
2022/02/06 15:25:54;;;;;;;0.10;0.10;;;6.30;99.90;;;;;;5052255;28;20041;-85
2022/02/06 15:28:22;;;;;;;0.00;0.00;;;5.90;99.90;;;;;;5069264;28;20037;-85
2022/02/06 15:30:49;;;;;;;0.10;0.10;;;5.70;99.90;;;;;;5060723;28;20072;-80
2022/02/06 15:33:16;;;;;;;0.10;0.10;;;5.50;99.90;;;;;;5065888;28;20065;-87
2022/02/06 15:35:43;;;;;;;0.10;0.10;;;5.00;99.90;;;;;;5068480;28;20041;-85
2022/02/06 15:38:11;;;;;;;0.10;0.10;;;4.80;99.90;;;;;;5069180;28;20041;-87
2022/02/06 15:40:38;;;;;;;0.10;0.10;;;4.90;99.90;;;;;;5063750;28;20526;-86
2022/02/06 15:43:09;;;;;;;0.55;0.55;;;4.30;99.90;;;;;;5051700;28;20048;-86
2022/02/06 15:45:39;;;;;;;0.10;0.10;;;4.70;99.90;;;;;;5067818;28;20029;-80
2022/02/06 15:48:09;;;;;;;0.10;0.10;;;4.10;99.90;;;;;;5057028;28;20075;-80
2022/02/06 15:50:37;;;;;;;0.10;0.10;;;4.10;99.90;;;;;;5053851;28;20103;-80
2022/02/06 15:53:04;;;;;;;0.10;0.10;;;4.00;99.90;;;;;;5057920;28;20040;-80
2022/02/06 15:55:31;;;;;;;0.10;0.10;;;4.80;99.90;;;;;;5047298;28;20045;-85
2022/02/06 15:57:58;;;;;;;0.10;0.10;;;4.10;99.90;;;;;;5069943;28;20132;-86
2022/02/06 16:00:25;;;;;;;0.10;0.10;;;4.00;99.90;;;;;;5065893;28;20160;-86
2022/02/06 16:02:52;;;;;;;0.10;0.10;;;4.10;99.90;;;;;;5069237;28;20037;-79
2022/02/06 16:05:18;;;;;;;0.10;0.10;;;4.00;99.90;;;;;;5062558;28;20030;-81